sensor_id;sensor_type;location;lat;lon;timestamp;P1;durP1;ratioP1;P2;durP2;ratioP2
815;SDS011;25928;51.062;13.752;2022-07-09T00:00:33;6.07;;;5.50;;
815;SDS011;25928;51.062;13.752;2022-07-09T00:02:59;6.00;;;5.23;;
815;SDS011;25928;51.062;13.752;2022-07-09T00:05:24;6.03;;;5.43;;
815;SDS011;25928;51.062;13.752;2022-07-09T00:07:50;10.40;;;7.20;;
815;SDS011;25928;51.062;13.752;2022-07-09T00:10:15;5.93;;;5.37;;
815;SDS011;25928;51.062;13.752;2022-07-09T00:12:41;9.23;;;6.10;;
815;SDS011;25928;51.062;13.752;2022-07-09T00:15:07;6.10;;;5.53;;
815;SDS011;25928;51.062;13.752;2022-07-09T00:17:33;5.87;;;5.20;;
815;SDS011;25928;51.062;13.752;2022-07-09T00:19:58;5.73;;;5.33;;
815;SDS011;25928;51.062;13.752;2022-07-09T00:22:26;7.90;;;6.53;;
815;SDS011;25928;51.062;13.752;2022-07-09T00:24:52;8.27;;;5.80;;
815;SDS011;25928;51.062;13.752;2022-07-09T00:27:18;6.50;;;5.90;;
815;SDS011;25928;51.062;13.752;2022-07-09T00:29:43;6.67;;;5.83;;
815;SDS011;25928;51.062;13.752;2022-07-09T00:32:09;6.60;;;5.90;;
815;SDS011;25928;51.062;13.752;2022-07-09T00:34:34;9.43;;;6.90;;
815;SDS011;25928;51.062;13.752;2022-07-09T00:37:00;7.27;;;6.57;;
815;SDS011;25928;51.062;13.752;2022-07-09T00:39:26;6.17;;;5.67;;
815;SDS011;25928;51.062;13.752;2022-07-09T00:42:02;8.67;;;6.70;;
815;SDS011;25928;51.062;13.752;2022-07-09T00:44:32;7.00;;;5.53;;
815;SDS011;25928;51.062;13.752;2022-07-09T00:46:57;8.70;;;5.93;;
815;SDS011;25928;51.062;13.752;2022-07-09T00:49:25;6.37;;;5.60;;
815;SDS011;25928;51.062;13.752;2022-07-09T00:51:53;7.03;;;5.93;;
815;SDS011;25928;51.062;13.752;2022-07-09T00:54:19;8.00;;;5.77;;
815;SDS011;25928;51.062;13.752;2022-07-09T00:56:46;7.30;;;6.40;;
815;SDS011;25928;51.062;13.752;2022-07-09T00:59:12;6.70;;;5.77;;
815;SDS011;25928;51.062;13.752;2022-07-09T01:01:39;6.40;;;5.80;;
815;SDS011;25928;51.062;13.752;2022-07-09T01:04:05;6.77;;;6.17;;
815;SDS011;25928;51.062;13.752;2022-07-09T01:06:31;6.13;;;5.53;;
815;SDS011;25928;51.062;13.752;2022-07-09T01:08:59;8.20;;;6.30;;
815;SDS011;25928;51.062;13.752;2022-07-09T01:11:26;7.90;;;5.93;;
815;SDS011;25928;51.062;13.752;2022-07-09T01:13:52;7.07;;;6.03;;
815;SDS011;25928;51.062;13.752;2022-07-09T01:16:18;6.40;;;5.80;;
815;SDS011;25928;51.062;13.752;2022-07-09T01:18:45;9.40;;;6.03;;
815;SDS011;25928;51.062;13.752;2022-07-09T01:21:12;7.43;;;6.73;;
815;SDS011;25928;51.062;13.752;2022-07-09T01:23:38;8.57;;;5.93;;
815;SDS011;25928;51.062;13.752;2022-07-09T01:26:07;6.10;;;5.60;;
815;SDS011;25928;51.062;13.752;2022-07-09T01:28:33;7.47;;;6.60;;
815;SDS011;25928;51.062;13.752;2022-07-09T01:30:58;7.10;;;6.60;;
815;SDS011;25928;51.062;13.752;2022-07-09T01:33:27;6.87;;;6.17;;
815;SDS011;25928;51.062;13.752;2022-07-09T01:35:52;13.03;;;6.43;;
815;SDS011;25928;51.062;13.752;2022-07-09T01:38:18;7.33;;;6.20;;
815;SDS011;25928;51.062;13.752;2022-07-09T01:40:43;7.80;;;6.57;;
815;SDS011;25928;51.062;13.752;2022-07-09T01:43:09;7.33;;;5.63;;
815;SDS011;25928;51.062;13.752;2022-07-09T01:45:35;7.87;;;7.07;;
815;SDS011;25928;51.062;13.752;2022-07-09T01:48:01;8.87;;;6.43;;
815;SDS011;25928;51.062;13.752;2022-07-09T01:50:26;7.33;;;6.63;;
815;SDS011;25928;51.062;13.752;2022-07-09T01:52:52;7.10;;;6.40;;
815;SDS011;25928;51.062;13.752;2022-07-09T01:55:17;6.60;;;6.00;;
815;SDS011;25928;51.062;13.752;2022-07-09T01:57:43;10.43;;;6.13;;
815;SDS011;25928;51.062;13.752;2022-07-09T02:00:09;8.00;;;5.53;;
815;SDS011;25928;51.062;13.752;2022-07-09T02:02:35;6.87;;;6.27;;
815;SDS011;25928;51.062;13.752;2022-07-09T02:05:01;10.50;;;5.93;;
815;SDS011;25928;51.062;13.752;2022-07-09T02:07:28;5.83;;;5.33;;
815;SDS011;25928;51.062;13.752;2022-07-09T02:09:54;8.40;;;6.20;;
815;SDS011;25928;51.062;13.752;2022-07-09T02:12:20;5.93;;;5.43;;
815;SDS011;25928;51.062;13.752;2022-07-09T02:14:45;6.60;;;6.10;;
815;SDS011;25928;51.062;13.752;2022-07-09T02:17:11;6.67;;;6.07;;
815;SDS011;25928;51.062;13.752;2022-07-09T02:19:37;6.50;;;5.90;;
815;SDS011;25928;51.062;13.752;2022-07-09T02:22:02;5.70;;;5.20;;
815;SDS011;25928;51.062;13.752;2022-07-09T02:24:28;6.43;;;5.93;;
815;SDS011;25928;51.062;13.752;2022-07-09T02:26:54;6.80;;;6.20;;
815;SDS011;25928;51.062;13.752;2022-07-09T02:29:19;6.40;;;5.17;;
815;SDS011;25928;51.062;13.752;2022-07-09T02:31:45;6.00;;;5.40;;
815;SDS011;25928;51.062;13.752;2022-07-09T02:34:11;6.87;;;6.17;;
815;SDS011;25928;51.062;13.752;2022-07-09T02:36:36;6.20;;;5.60;;
815;SDS011;25928;51.062;13.752;2022-07-09T02:39:02;5.80;;;5.30;;
815;SDS011;25928;51.062;13.752;2022-07-09T02:41:28;9.17;;;6.47;;
815;SDS011;25928;51.062;13.752;2022-07-09T02:43:53;6.23;;;5.63;;
815;SDS011;25928;51.062;13.752;2022-07-09T02:46:19;7.13;;;5.97;;
815;SDS011;25928;51.062;13.752;2022-07-09T02:48:44;5.97;;;5.47;;
815;SDS011;25928;51.062;13.752;2022-07-09T02:51:10;5.90;;;5.40;;
815;SDS011;25928;51.062;13.752;2022-07-09T02:53:36;7.43;;;6.70;;
815;SDS011;25928;51.062;13.752;2022-07-09T02:56:01;6.30;;;5.70;;
815;SDS011;25928;51.062;13.752;2022-07-09T02:58:27;5.97;;;5.43;;
815;SDS011;25928;51.062;13.752;2022-07-09T03:00:52;7.40;;;6.57;;
815;SDS011;25928;51.062;13.752;2022-07-09T03:03:18;5.70;;;5.20;;
815;SDS011;25928;51.062;13.752;2022-07-09T03:05:44;6.10;;;5.50;;
815;SDS011;25928;51.062;13.752;2022-07-09T03:08:10;6.10;;;5.50;;
815;SDS011;25928;51.062;13.752;2022-07-09T03:10:35;6.33;;;5.73;;
815;SDS011;25928;51.062;13.752;2022-07-09T03:13:01;6.20;;;5.70;;
815;SDS011;25928;51.062;13.752;2022-07-09T03:15:28;7.17;;;6.47;;
815;SDS011;25928;51.062;13.752;2022-07-09T03:17:53;6.87;;;6.27;;
815;SDS011;25928;51.062;13.752;2022-07-09T03:20:19;7.07;;;6.37;;
815;SDS011;25928;51.062;13.752;2022-07-09T03:22:44;8.53;;;6.17;;
815;SDS011;25928;51.062;13.752;2022-07-09T03:25:10;8.60;;;6.67;;
815;SDS011;25928;51.062;13.752;2022-07-09T03:27:36;6.67;;;5.43;;
815;SDS011;25928;51.062;13.752;2022-07-09T03:30:02;6.53;;;5.93;;
815;SDS011;25928;51.062;13.752;2022-07-09T03:32:29;6.20;;;5.70;;
815;SDS011;25928;51.062;13.752;2022-07-09T03:34:55;6.33;;;5.83;;
815;SDS011;25928;51.062;13.752;2022-07-09T03:37:20;5.90;;;5.37;;
815;SDS011;25928;51.062;13.752;2022-07-09T03:39:46;5.80;;;5.20;;
815;SDS011;25928;51.062;13.752;2022-07-09T03:42:12;8.63;;;5.20;;
815;SDS011;25928;51.062;13.752;2022-07-09T03:44:39;5.10;;;4.70;;
815;SDS011;25928;51.062;13.752;2022-07-09T03:47:05;5.60;;;4.63;;
815;SDS011;25928;51.062;13.752;2022-07-09T03:49:31;4.87;;;4.47;;
815;SDS011;25928;51.062;13.752;2022-07-09T03:51:57;4.47;;;4.07;;
815;SDS011;25928;51.062;13.752;2022-07-09T03:54:23;5.10;;;4.70;;
815;SDS011;25928;51.062;13.752;2022-07-09T03:56:49;6.27;;;4.50;;
815;SDS011;25928;51.062;13.752;2022-07-09T03:59:15;6.33;;;5.57;;
815;SDS011;25928;51.062;13.752;2022-07-09T04:01:41;5.80;;;5.30;;
815;SDS011;25928;51.062;13.752;2022-07-09T04:04:06;5.60;;;5.20;;
815;SDS011;25928;51.062;13.752;2022-07-09T04:06:32;6.37;;;5.77;;
815;SDS011;25928;51.062;13.752;2022-07-09T04:08:58;6.60;;;5.90;;
815;SDS011;25928;51.062;13.752;2022-07-09T04:11:29;5.83;;;5.33;;
815;SDS011;25928;51.062;13.752;2022-07-09T04:14:01;7.40;;;5.83;;
815;SDS011;25928;51.062;13.752;2022-07-09T04:16:27;7.13;;;5.20;;
815;SDS011;25928;51.062;13.752;2022-07-09T04:18:54;6.70;;;5.10;;
815;SDS011;25928;51.062;13.752;2022-07-09T04:21:19;6.17;;;5.10;;
815;SDS011;25928;51.062;13.752;2022-07-09T04:23:48;7.60;;;5.63;;
815;SDS011;25928;51.062;13.752;2022-07-09T04:26:15;6.43;;;5.30;;
815;SDS011;25928;51.062;13.752;2022-07-09T04:28:40;6.03;;;5.63;;
815;SDS011;25928;51.062;13.752;2022-07-09T04:31:06;5.13;;;4.63;;
815;SDS011;25928;51.062;13.752;2022-07-09T04:33:32;5.23;;;4.83;;
815;SDS011;25928;51.062;13.752;2022-07-09T04:35:57;8.27;;;5.70;;
815;SDS011;25928;51.062;13.752;2022-07-09T04:38:23;5.23;;;4.73;;
815;SDS011;25928;51.062;13.752;2022-07-09T04:40:49;6.47;;;4.77;;
815;SDS011;25928;51.062;13.752;2022-07-09T04:43:16;6.00;;;5.50;;
815;SDS011;25928;51.062;13.752;2022-07-09T04:45:41;6.30;;;5.37;;
815;SDS011;25928;51.062;13.752;2022-07-09T04:48:07;5.80;;;5.30;;
815;SDS011;25928;51.062;13.752;2022-07-09T04:50:33;5.90;;;5.30;;
815;SDS011;25928;51.062;13.752;2022-07-09T04:52:58;5.40;;;5.00;;
815;SDS011;25928;51.062;13.752;2022-07-09T04:55:24;8.27;;;5.17;;
815;SDS011;25928;51.062;13.752;2022-07-09T04:57:50;6.13;;;5.50;;
815;SDS011;25928;51.062;13.752;2022-07-09T05:00:15;6.23;;;5.73;;
815;SDS011;25928;51.062;13.752;2022-07-09T05:02:41;8.33;;;5.30;;
815;SDS011;25928;51.062;13.752;2022-07-09T05:05:08;5.60;;;5.10;;
815;SDS011;25928;51.062;13.752;2022-07-09T05:07:36;7.83;;;4.60;;
815;SDS011;25928;51.062;13.752;2022-07-09T05:10:02;6.00;;;4.60;;
815;SDS011;25928;51.062;13.752;2022-07-09T05:12:29;4.57;;;4.17;;
815;SDS011;25928;51.062;13.752;2022-07-09T05:14:54;5.27;;;4.87;;
815;SDS011;25928;51.062;13.752;2022-07-09T05:17:21;5.80;;;4.27;;
815;SDS011;25928;51.062;13.752;2022-07-09T05:19:47;5.40;;;5.00;;
815;SDS011;25928;51.062;13.752;2022-07-09T05:22:13;5.03;;;4.53;;
815;SDS011;25928;51.062;13.752;2022-07-09T05:24:38;5.10;;;4.70;;
815;SDS011;25928;51.062;13.752;2022-07-09T05:27:05;5.00;;;4.50;;
815;SDS011;25928;51.062;13.752;2022-07-09T05:29:31;4.63;;;4.20;;
815;SDS011;25928;51.062;13.752;2022-07-09T05:31:57;10.73;;;4.63;;
815;SDS011;25928;51.062;13.752;2022-07-09T05:34:23;4.27;;;3.80;;
815;SDS011;25928;51.062;13.752;2022-07-09T05:36:50;5.97;;;4.07;;
815;SDS011;25928;51.062;13.752;2022-07-09T05:39:20;5.53;;;4.00;;
815;SDS011;25928;51.062;13.752;2022-07-09T05:41:45;5.73;;;3.83;;
815;SDS011;25928;51.062;13.752;2022-07-09T05:44:11;5.73;;;3.50;;
815;SDS011;25928;51.062;13.752;2022-07-09T05:46:36;4.40;;;3.60;;
815;SDS011;25928;51.062;13.752;2022-07-09T05:49:02;4.20;;;3.80;;
815;SDS011;25928;51.062;13.752;2022-07-09T05:51:28;5.13;;;3.60;;
815;SDS011;25928;51.062;13.752;2022-07-09T05:53:54;3.67;;;3.27;;
815;SDS011;25928;51.062;13.752;2022-07-09T05:56:20;4.67;;;3.43;;
815;SDS011;25928;51.062;13.752;2022-07-09T05:58:46;4.60;;;3.43;;
815;SDS011;25928;51.062;13.752;2022-07-09T06:01:12;5.63;;;3.90;;
815;SDS011;25928;51.062;13.752;2022-07-09T06:03:38;5.77;;;3.83;;
815;SDS011;25928;51.062;13.752;2022-07-09T06:06:05;6.43;;;3.27;;
815;SDS011;25928;51.062;13.752;2022-07-09T06:08:31;4.10;;;3.50;;
815;SDS011;25928;51.062;13.752;2022-07-09T06:10:58;3.77;;;3.40;;
815;SDS011;25928;51.062;13.752;2022-07-09T06:13:24;4.33;;;3.93;;
815;SDS011;25928;51.062;13.752;2022-07-09T06:15:49;7.17;;;4.20;;
815;SDS011;25928;51.062;13.752;2022-07-09T06:18:16;5.43;;;3.70;;
815;SDS011;25928;51.062;13.752;2022-07-09T06:20:41;5.90;;;3.70;;
815;SDS011;25928;51.062;13.752;2022-07-09T06:23:07;4.23;;;3.83;;
815;SDS011;25928;51.062;13.752;2022-07-09T06:25:34;5.53;;;3.87;;
815;SDS011;25928;51.062;13.752;2022-07-09T06:27:59;5.47;;;4.20;;
815;SDS011;25928;51.062;13.752;2022-07-09T06:30:25;5.83;;;4.03;;
815;SDS011;25928;51.062;13.752;2022-07-09T06:32:51;9.10;;;4.63;;
815;SDS011;25928;51.062;13.752;2022-07-09T06:35:16;7.40;;;4.37;;
815;SDS011;25928;51.062;13.752;2022-07-09T06:37:43;4.53;;;4.13;;
815;SDS011;25928;51.062;13.752;2022-07-09T06:40:09;5.10;;;4.30;;
815;SDS011;25928;51.062;13.752;2022-07-09T06:42:34;6.67;;;4.20;;
815;SDS011;25928;51.062;13.752;2022-07-09T06:45:01;5.33;;;4.00;;
815;SDS011;25928;51.062;13.752;2022-07-09T06:47:27;6.13;;;4.80;;
815;SDS011;25928;51.062;13.752;2022-07-09T06:49:53;8.57;;;5.13;;
815;SDS011;25928;51.062;13.752;2022-07-09T06:52:18;6.60;;;4.47;;
815;SDS011;25928;51.062;13.752;2022-07-09T06:54:44;6.53;;;4.80;;
815;SDS011;25928;51.062;13.752;2022-07-09T06:57:09;5.47;;;4.67;;
815;SDS011;25928;51.062;13.752;2022-07-09T06:59:35;5.87;;;4.90;;
815;SDS011;25928;51.062;13.752;2022-07-09T07:02:01;5.57;;;4.70;;
815;SDS011;25928;51.062;13.752;2022-07-09T07:04:27;6.10;;;4.60;;
815;SDS011;25928;51.062;13.752;2022-07-09T07:06:52;5.10;;;4.70;;
815;SDS011;25928;51.062;13.752;2022-07-09T07:09:18;5.80;;;5.20;;
815;SDS011;25928;51.062;13.752;2022-07-09T07:11:46;5.10;;;4.60;;
815;SDS011;25928;51.062;13.752;2022-07-09T07:14:12;9.47;;;4.43;;
815;SDS011;25928;51.062;13.752;2022-07-09T07:16:37;5.07;;;4.50;;
815;SDS011;25928;51.062;13.752;2022-07-09T07:19:03;5.77;;;4.30;;
815;SDS011;25928;51.062;13.752;2022-07-09T07:21:29;5.63;;;4.40;;
815;SDS011;25928;51.062;13.752;2022-07-09T07:23:54;5.50;;;4.23;;
815;SDS011;25928;51.062;13.752;2022-07-09T07:26:20;7.67;;;4.03;;
815;SDS011;25928;51.062;13.752;2022-07-09T07:28:45;4.40;;;4.10;;
815;SDS011;25928;51.062;13.752;2022-07-09T07:31:11;4.83;;;4.30;;
815;SDS011;25928;51.062;13.752;2022-07-09T07:33:37;6.10;;;4.27;;
815;SDS011;25928;51.062;13.752;2022-07-09T07:36:06;5.13;;;4.40;;
815;SDS011;25928;51.062;13.752;2022-07-09T07:38:33;5.77;;;3.97;;
815;SDS011;25928;51.062;13.752;2022-07-09T07:40:59;6.40;;;4.00;;
815;SDS011;25928;51.062;13.752;2022-07-09T07:43:25;4.30;;;3.83;;
815;SDS011;25928;51.062;13.752;2022-07-09T07:45:51;5.87;;;3.80;;
815;SDS011;25928;51.062;13.752;2022-07-09T07:48:16;7.20;;;4.30;;
815;SDS011;25928;51.062;13.752;2022-07-09T07:50:42;5.10;;;3.77;;
815;SDS011;25928;51.062;13.752;2022-07-09T07:53:07;4.77;;;4.20;;
815;SDS011;25928;51.062;13.752;2022-07-09T07:55:33;5.60;;;3.70;;
815;SDS011;25928;51.062;13.752;2022-07-09T07:57:59;6.60;;;4.20;;
815;SDS011;25928;51.062;13.752;2022-07-09T08:00:25;6.83;;;3.83;;
815;SDS011;25928;51.062;13.752;2022-07-09T08:02:50;3.70;;;3.30;;
815;SDS011;25928;51.062;13.752;2022-07-09T08:05:16;4.07;;;3.63;;
815;SDS011;25928;51.062;13.752;2022-07-09T08:07:42;5.73;;;3.60;;
815;SDS011;25928;51.062;13.752;2022-07-09T08:10:08;3.60;;;3.30;;
815;SDS011;25928;51.062;13.752;2022-07-09T08:12:34;3.63;;;3.10;;
815;SDS011;25928;51.062;13.752;2022-07-09T08:15:00;4.53;;;3.57;;
815;SDS011;25928;51.062;13.752;2022-07-09T08:17:25;5.83;;;2.93;;
815;SDS011;25928;51.062;13.752;2022-07-09T08:19:51;7.80;;;3.30;;
815;SDS011;25928;51.062;13.752;2022-07-09T08:22:17;3.80;;;3.03;;
815;SDS011;25928;51.062;13.752;2022-07-09T08:24:43;4.43;;;3.07;;
815;SDS011;25928;51.062;13.752;2022-07-09T08:27:08;4.90;;;3.30;;
815;SDS011;25928;51.062;13.752;2022-07-09T08:29:34;4.20;;;3.60;;
815;SDS011;25928;51.062;13.752;2022-07-09T08:32:00;3.33;;;3.07;;
815;SDS011;25928;51.062;13.752;2022-07-09T08:34:25;4.80;;;3.00;;
815;SDS011;25928;51.062;13.752;2022-07-09T08:36:51;6.63;;;3.00;;
815;SDS011;25928;51.062;13.752;2022-07-09T08:39:16;5.70;;;3.60;;
815;SDS011;25928;51.062;13.752;2022-07-09T08:41:42;4.13;;;3.20;;
815;SDS011;25928;51.062;13.752;2022-07-09T08:44:11;6.43;;;3.20;;
815;SDS011;25928;51.062;13.752;2022-07-09T08:46:37;6.17;;;2.70;;
815;SDS011;25928;51.062;13.752;2022-07-09T08:49:03;3.30;;;2.83;;
815;SDS011;25928;51.062;13.752;2022-07-09T08:51:30;4.43;;;3.03;;
815;SDS011;25928;51.062;13.752;2022-07-09T08:53:57;3.80;;;3.07;;
815;SDS011;25928;51.062;13.752;2022-07-09T08:56:23;3.10;;;2.50;;
815;SDS011;25928;51.062;13.752;2022-07-09T08:58:49;6.80;;;3.27;;
815;SDS011;25928;51.062;13.752;2022-07-09T09:01:15;4.80;;;2.80;;
815;SDS011;25928;51.062;13.752;2022-07-09T09:03:44;4.20;;;2.57;;
815;SDS011;25928;51.062;13.752;2022-07-09T09:06:11;4.37;;;2.73;;
815;SDS011;25928;51.062;13.752;2022-07-09T09:08:41;6.43;;;3.73;;
815;SDS011;25928;51.062;13.752;2022-07-09T09:11:12;4.73;;;2.77;;
815;SDS011;25928;51.062;13.752;2022-07-09T09:13:45;4.50;;;2.70;;
815;SDS011;25928;51.062;13.752;2022-07-09T09:16:12;4.27;;;3.03;;
815;SDS011;25928;51.062;13.752;2022-07-09T09:18:51;8.43;;;2.37;;
815;SDS011;25928;51.062;13.752;2022-07-09T09:21:19;4.00;;;3.57;;
815;SDS011;25928;51.062;13.752;2022-07-09T09:23:53;5.20;;;3.00;;
815;SDS011;25928;51.062;13.752;2022-07-09T09:26:21;2.40;;;2.20;;
815;SDS011;25928;51.062;13.752;2022-07-09T09:31:24;2.90;;;2.10;;
815;SDS011;25928;51.062;13.752;2022-07-09T09:33:52;2.87;;;2.67;;
815;SDS011;25928;51.062;13.752;2022-07-09T09:41:47;4.07;;;2.70;;
815;SDS011;25928;51.062;13.752;2022-07-09T09:44:15;2.17;;;2.07;;
815;SDS011;25928;51.062;13.752;2022-07-09T09:46:43;4.20;;;2.60;;
815;SDS011;25928;51.062;13.752;2022-07-09T09:49:09;3.20;;;2.70;;
815;SDS011;25928;51.062;13.752;2022-07-09T09:51:55;8.83;;;2.87;;
815;SDS011;25928;51.062;13.752;2022-07-09T09:54:27;3.20;;;2.67;;
815;SDS011;25928;51.062;13.752;2022-07-09T09:56:53;4.90;;;2.70;;
815;SDS011;25928;51.062;13.752;2022-07-09T09:59:19;4.70;;;3.13;;
815;SDS011;25928;51.062;13.752;2022-07-09T10:01:45;5.57;;;2.67;;
815;SDS011;25928;51.062;13.752;2022-07-09T10:04:12;4.73;;;2.50;;
815;SDS011;25928;51.062;13.752;2022-07-09T10:06:40;3.40;;;2.80;;
815;SDS011;25928;51.062;13.752;2022-07-09T10:09:07;3.17;;;2.87;;
815;SDS011;25928;51.062;13.752;2022-07-09T10:14:05;4.67;;;2.93;;
815;SDS011;25928;51.062;13.752;2022-07-09T10:16:37;3.33;;;2.60;;
815;SDS011;25928;51.062;13.752;2022-07-09T10:19:03;3.27;;;2.73;;
815;SDS011;25928;51.062;13.752;2022-07-09T10:21:33;3.00;;;2.47;;
815;SDS011;25928;51.062;13.752;2022-07-09T10:23:59;3.03;;;2.83;;
815;SDS011;25928;51.062;13.752;2022-07-09T10:29:32;3.37;;;2.90;;
815;SDS011;25928;51.062;13.752;2022-07-09T10:31:58;4.33;;;2.60;;
815;SDS011;25928;51.062;13.752;2022-07-09T10:34:38;3.57;;;3.27;;
815;SDS011;25928;51.062;13.752;2022-07-09T10:37:13;3.40;;;3.10;;
815;SDS011;25928;51.062;13.752;2022-07-09T10:39:38;2.83;;;2.63;;
815;SDS011;25928;51.062;13.752;2022-07-09T10:42:05;3.23;;;2.63;;
815;SDS011;25928;51.062;13.752;2022-07-09T10:44:37;4.30;;;2.50;;
815;SDS011;25928;51.062;13.752;2022-07-09T10:47:05;3.33;;;2.43;;
815;SDS011;25928;51.062;13.752;2022-07-09T10:49:35;5.43;;;2.73;;
815;SDS011;25928;51.062;13.752;2022-07-09T10:52:01;3.53;;;3.23;;
815;SDS011;25928;51.062;13.752;2022-07-09T10:54:28;3.30;;;2.93;;
815;SDS011;25928;51.062;13.752;2022-07-09T10:56:54;2.40;;;2.20;;
815;SDS011;25928;51.062;13.752;2022-07-09T10:59:20;3.03;;;2.30;;
815;SDS011;25928;51.062;13.752;2022-07-09T11:01:46;3.20;;;2.13;;
815;SDS011;25928;51.062;13.752;2022-07-09T11:04:22;2.63;;;2.43;;
815;SDS011;25928;51.062;13.752;2022-07-09T11:06:55;2.90;;;2.17;;
815;SDS011;25928;51.062;13.752;2022-07-09T11:09:22;2.40;;;2.20;;
815;SDS011;25928;51.062;13.752;2022-07-09T11:11:50;3.77;;;2.33;;
815;SDS011;25928;51.062;13.752;2022-07-09T11:14:15;3.40;;;2.60;;
815;SDS011;25928;51.062;13.752;2022-07-09T11:16:41;4.33;;;2.80;;
815;SDS011;25928;51.062;13.752;2022-07-09T11:21:42;3.17;;;2.20;;
815;SDS011;25928;51.062;13.752;2022-07-09T11:24:18;5.37;;;2.77;;
815;SDS011;25928;51.062;13.752;2022-07-09T11:26:48;2.33;;;2.13;;
815;SDS011;25928;51.062;13.752;2022-07-09T11:29:14;2.30;;;2.10;;
815;SDS011;25928;51.062;13.752;2022-07-09T11:31:51;2.57;;;2.23;;
815;SDS011;25928;51.062;13.752;2022-07-09T11:34:17;2.03;;;1.83;;
815;SDS011;25928;51.062;13.752;2022-07-09T11:36:44;5.20;;;2.60;;
815;SDS011;25928;51.062;13.752;2022-07-09T11:39:21;2.30;;;2.10;;
815;SDS011;25928;51.062;13.752;2022-07-09T11:41:54;3.23;;;2.33;;
815;SDS011;25928;51.062;13.752;2022-07-09T11:44:22;3.20;;;2.33;;
815;SDS011;25928;51.062;13.752;2022-07-09T11:47:05;3.90;;;2.60;;
815;SDS011;25928;51.062;13.752;2022-07-09T11:49:35;3.23;;;2.30;;
815;SDS011;25928;51.062;13.752;2022-07-09T11:52:02;3.70;;;2.37;;
815;SDS011;25928;51.062;13.752;2022-07-09T11:54:29;2.10;;;1.90;;
815;SDS011;25928;51.062;13.752;2022-07-09T11:56:55;2.40;;;2.00;;
815;SDS011;25928;51.062;13.752;2022-07-09T11:59:29;2.70;;;2.50;;
815;SDS011;25928;51.062;13.752;2022-07-09T12:01:59;3.50;;;2.17;;
815;SDS011;25928;51.062;13.752;2022-07-09T12:04:29;3.77;;;2.30;;
815;SDS011;25928;51.062;13.752;2022-07-09T12:06:56;2.77;;;2.40;;
815;SDS011;25928;51.062;13.752;2022-07-09T12:09:29;2.80;;;2.40;;
815;SDS011;25928;51.062;13.752;2022-07-09T12:11:56;2.23;;;1.60;;
815;SDS011;25928;51.062;13.752;2022-07-09T12:14:22;1.97;;;1.70;;
815;SDS011;25928;51.062;13.752;2022-07-09T12:16:47;7.20;;;2.27;;
815;SDS011;25928;51.062;13.752;2022-07-09T12:19:13;2.90;;;2.37;;
815;SDS011;25928;51.062;13.752;2022-07-09T12:21:39;2.90;;;1.80;;
815;SDS011;25928;51.062;13.752;2022-07-09T12:24:04;1.70;;;1.60;;
815;SDS011;25928;51.062;13.752;2022-07-09T12:26:30;2.30;;;2.03;;
815;SDS011;25928;51.062;13.752;2022-07-09T12:28:56;2.27;;;1.83;;
815;SDS011;25928;51.062;13.752;2022-07-09T12:31:22;2.23;;;2.00;;
815;SDS011;25928;51.062;13.752;2022-07-09T12:33:47;1.90;;;1.80;;
815;SDS011;25928;51.062;13.752;2022-07-09T12:36:13;2.00;;;1.90;;
815;SDS011;25928;51.062;13.752;2022-07-09T12:38:41;3.90;;;1.90;;
815;SDS011;25928;51.062;13.752;2022-07-09T12:41:07;2.77;;;1.73;;
815;SDS011;25928;51.062;13.752;2022-07-09T12:43:33;1.90;;;1.70;;
815;SDS011;25928;51.062;13.752;2022-07-09T12:45:59;3.20;;;1.93;;
815;SDS011;25928;51.062;13.752;2022-07-09T12:48:24;2.00;;;1.87;;
815;SDS011;25928;51.062;13.752;2022-07-09T12:50:50;2.07;;;1.90;;
815;SDS011;25928;51.062;13.752;2022-07-09T12:53:15;2.63;;;1.70;;
815;SDS011;25928;51.062;13.752;2022-07-09T12:55:41;2.33;;;1.77;;
815;SDS011;25928;51.062;13.752;2022-07-09T12:58:07;2.50;;;1.97;;
815;SDS011;25928;51.062;13.752;2022-07-09T13:00:32;2.10;;;1.70;;
815;SDS011;25928;51.062;13.752;2022-07-09T13:02:58;3.83;;;1.90;;
815;SDS011;25928;51.062;13.752;2022-07-09T13:05:24;2.40;;;1.93;;
815;SDS011;25928;51.062;13.752;2022-07-09T13:07:49;2.10;;;1.90;;
815;SDS011;25928;51.062;13.752;2022-07-09T13:10:15;6.60;;;2.20;;
815;SDS011;25928;51.062;13.752;2022-07-09T13:12:40;3.53;;;2.10;;
815;SDS011;25928;51.062;13.752;2022-07-09T13:15:06;3.27;;;1.93;;
815;SDS011;25928;51.062;13.752;2022-07-09T13:17:32;2.93;;;1.87;;
815;SDS011;25928;51.062;13.752;2022-07-09T13:19:57;3.20;;;2.40;;
815;SDS011;25928;51.062;13.752;2022-07-09T13:22:23;3.03;;;1.90;;
815;SDS011;25928;51.062;13.752;2022-07-09T13:24:49;2.30;;;1.63;;
815;SDS011;25928;51.062;13.752;2022-07-09T13:27:14;3.67;;;1.70;;
815;SDS011;25928;51.062;13.752;2022-07-09T13:29:43;2.37;;;1.70;;
815;SDS011;25928;51.062;13.752;2022-07-09T13:32:09;1.80;;;1.70;;
815;SDS011;25928;51.062;13.752;2022-07-09T13:34:35;1.93;;;1.60;;
815;SDS011;25928;51.062;13.752;2022-07-09T13:37:01;1.90;;;1.80;;
815;SDS011;25928;51.062;13.752;2022-07-09T13:39:27;2.63;;;1.83;;
815;SDS011;25928;51.062;13.752;2022-07-09T13:41:53;2.83;;;1.80;;
815;SDS011;25928;51.062;13.752;2022-07-09T13:44:18;1.90;;;1.40;;
815;SDS011;25928;51.062;13.752;2022-07-09T13:46:44;1.93;;;1.50;;
815;SDS011;25928;51.062;13.752;2022-07-09T13:49:09;1.90;;;1.80;;
815;SDS011;25928;51.062;13.752;2022-07-09T13:51:35;2.07;;;1.43;;
815;SDS011;25928;51.062;13.752;2022-07-09T13:54:01;2.40;;;1.57;;
815;SDS011;25928;51.062;13.752;2022-07-09T13:56:26;2.00;;;1.70;;
815;SDS011;25928;51.062;13.752;2022-07-09T13:58:52;2.67;;;2.00;;
815;SDS011;25928;51.062;13.752;2022-07-09T14:01:17;2.00;;;1.70;;
815;SDS011;25928;51.062;13.752;2022-07-09T14:03:45;2.47;;;2.27;;
815;SDS011;25928;51.062;13.752;2022-07-09T14:06:11;1.70;;;1.60;;
815;SDS011;25928;51.062;13.752;2022-07-09T14:08:36;1.63;;;1.43;;
815;SDS011;25928;51.062;13.752;2022-07-09T14:11:06;2.40;;;2.20;;
815;SDS011;25928;51.062;13.752;2022-07-09T14:13:31;2.37;;;2.10;;
815;SDS011;25928;51.062;13.752;2022-07-09T14:15:57;3.03;;;2.10;;
815;SDS011;25928;51.062;13.752;2022-07-09T14:18:23;2.50;;;1.97;;
815;SDS011;25928;51.062;13.752;2022-07-09T14:20:48;2.90;;;2.13;;
815;SDS011;25928;51.062;13.752;2022-07-09T14:23:15;2.10;;;1.67;;
815;SDS011;25928;51.062;13.752;2022-07-09T14:25:40;2.57;;;2.37;;
815;SDS011;25928;51.062;13.752;2022-07-09T14:28:06;2.23;;;2.03;;
815;SDS011;25928;51.062;13.752;2022-07-09T14:30:32;2.97;;;2.27;;
815;SDS011;25928;51.062;13.752;2022-07-09T14:32:57;2.80;;;2.47;;
815;SDS011;25928;51.062;13.752;2022-07-09T14:35:24;3.00;;;2.70;;
815;SDS011;25928;51.062;13.752;2022-07-09T14:37:50;6.30;;;3.07;;
815;SDS011;25928;51.062;13.752;2022-07-09T14:40:16;3.33;;;2.90;;
815;SDS011;25928;51.062;13.752;2022-07-09T14:42:42;3.63;;;3.33;;
815;SDS011;25928;51.062;13.752;2022-07-09T14:45:08;3.50;;;2.70;;
815;SDS011;25928;51.062;13.752;2022-07-09T14:47:34;3.17;;;2.80;;
815;SDS011;25928;51.062;13.752;2022-07-09T14:50:00;3.53;;;2.80;;
815;SDS011;25928;51.062;13.752;2022-07-09T14:52:26;3.53;;;2.87;;
815;SDS011;25928;51.062;13.752;2022-07-09T14:54:51;5.13;;;2.40;;
815;SDS011;25928;51.062;13.752;2022-07-09T14:57:17;2.97;;;2.77;;
815;SDS011;25928;51.062;13.752;2022-07-09T14:59:43;3.30;;;2.97;;
815;SDS011;25928;51.062;13.752;2022-07-09T15:02:09;4.83;;;3.83;;
815;SDS011;25928;51.062;13.752;2022-07-09T15:04:34;3.87;;;3.50;;
815;SDS011;25928;51.062;13.752;2022-07-09T15:07:00;7.63;;;3.60;;
815;SDS011;25928;51.062;13.752;2022-07-09T15:09:26;3.93;;;3.63;;
815;SDS011;25928;51.062;13.752;2022-07-09T15:11:52;3.70;;;3.40;;